sensor_id;sensor_type;location;lat;lon;timestamp;pressure;altitude;pressure_sealevel;temperature;humidity
74327;BME280;62745;51.060;13.786;2023-05-17T00:00:01;100593.19;;;5.86;92.33
74327;BME280;62745;51.060;13.786;2023-05-17T00:02:26;100598.59;;;5.76;93.32
74327;BME280;62745;51.060;13.786;2023-05-17T00:04:52;100589.97;;;5.74;93.26
74327;BME280;62745;51.060;13.786;2023-05-17T00:07:17;100594.66;;;5.80;93.66
74327;BME280;62745;51.060;13.786;2023-05-17T00:09:42;100593.91;;;5.52;93.30
74327;BME280;62745;51.060;13.786;2023-05-17T00:12:08;100583.06;;;5.81;93.54
74327;BME280;62745;51.060;13.786;2023-05-17T00:14:33;100593.66;;;6.17;92.51
74327;BME280;62745;51.060;13.786;2023-05-17T00:16:58;100597.28;;;6.16;90.40
74327;BME280;62745;51.060;13.786;2023-05-17T00:19:23;100592.78;;;6.08;90.39
74327;BME280;62745;51.060;13.786;2023-05-17T00:21:49;100589.56;;;6.22;90.06
74327;BME280;62745;51.060;13.786;2023-05-17T00:24:14;100591.31;;;6.14;89.70
74327;BME280;62745;51.060;13.786;2023-05-17T00:26:39;100588.84;;;6.20;88.91
74327;BME280;62745;51.060;13.786;2023-05-17T00:29:05;100592.88;;;6.24;88.49
74327;BME280;62745;51.060;13.786;2023-05-17T00:31:30;100599.09;;;6.15;88.48
74327;BME280;62745;51.060;13.786;2023-05-17T00:33:55;100598.81;;;5.83;89.87
74327;BME280;62745;51.060;13.786;2023-05-17T00:36:20;100595.50;;;5.63;90.94
74327;BME280;62745;51.060;13.786;2023-05-17T00:38:46;100599.34;;;5.68;91.71
74327;BME280;62745;51.060;13.786;2023-05-17T00:41:11;100595.88;;;5.68;92.40
74327;BME280;62745;51.060;13.786;2023-05-17T00:43:37;100596.19;;;5.47;92.97
74327;BME280;62745;51.060;13.786;2023-05-17T00:46:02;100602.00;;;5.51;92.52
74327;BME280;62745;51.060;13.786;2023-05-17T00:48:29;100595.28;;;5.38;92.62
74327;BME280;62745;51.060;13.786;2023-05-17T00:50:54;100598.22;;;5.53;93.28
74327;BME280;62745;51.060;13.786;2023-05-17T00:53:20;100594.44;;;5.38;94.16
74327;BME280;62745;51.060;13.786;2023-05-17T00:55:46;100606.94;;;5.63;93.42
74327;BME280;62745;51.060;13.786;2023-05-17T00:58:11;100608.81;;;5.71;92.28
74327;BME280;62745;51.060;13.786;2023-05-17T01:00:38;100605.47;;;5.69;93.07
74327;BME280;62745;51.060;13.786;2023-05-17T01:03:03;100607.09;;;5.44;93.30
74327;BME280;62745;51.060;13.786;2023-05-17T01:05:28;100605.47;;;5.51;92.69
74327;BME280;62745;51.060;13.786;2023-05-17T01:07:54;100609.88;;;5.25;93.05
74327;BME280;62745;51.060;13.786;2023-05-17T01:10:20;100607.41;;;5.59;93.66
74327;BME280;62745;51.060;13.786;2023-05-17T01:13:05;100609.22;;;5.40;93.27
74327;BME280;62745;51.060;13.786;2023-05-17T01:15:36;100608.69;;;5.55;93.83
74327;BME280;62745;51.060;13.786;2023-05-17T01:18:27;100610.63;;;5.53;93.65
74327;BME280;62745;51.060;13.786;2023-05-17T01:20:57;100607.91;;;5.27;94.73
74327;BME280;62745;51.060;13.786;2023-05-17T01:26:40;100625.16;;;5.03;95.99
74327;BME280;62745;51.060;13.786;2023-05-17T01:29:08;100624.53;;;4.92;95.38
74327;BME280;62745;51.060;13.786;2023-05-17T01:31:35;100625.06;;;4.95;95.95
74327;BME280;62745;51.060;13.786;2023-05-17T01:34:05;100627.69;;;5.05;95.28
74327;BME280;62745;51.060;13.786;2023-05-17T01:36:30;100620.63;;;4.86;95.41
74327;BME280;62745;51.060;13.786;2023-05-17T01:38:56;100632.13;;;4.77;95.29
74327;BME280;62745;51.060;13.786;2023-05-17T01:41:39;100636.75;;;4.65;96.19
74327;BME280;62745;51.060;13.786;2023-05-17T01:44:23;100641.34;;;5.00;96.77
74327;BME280;62745;51.060;13.786;2023-05-17T01:46:57;100640.94;;;4.95;95.27
74327;BME280;62745;51.060;13.786;2023-05-17T01:49:29;100642.22;;;4.91;95.54
74327;BME280;62745;51.060;13.786;2023-05-17T01:52:06;100647.75;;;4.98;95.87
74327;BME280;62745;51.060;13.786;2023-05-17T01:54:38;100645.66;;;5.01;96.59
74327;BME280;62745;51.060;13.786;2023-05-17T01:57:08;100636.47;;;5.05;96.12
74327;BME280;62745;51.060;13.786;2023-05-17T01:59:37;100640.19;;;5.03;95.98
74327;BME280;62745;51.060;13.786;2023-05-17T02:02:03;100647.88;;;5.06;96.12
74327;BME280;62745;51.060;13.786;2023-05-17T02:04:33;100646.47;;;5.02;95.08
74327;BME280;62745;51.060;13.786;2023-05-17T02:06:58;100643.91;;;4.82;96.26
74327;BME280;62745;51.060;13.786;2023-05-17T02:09:24;100648.88;;;4.95;96.39
74327;BME280;62745;51.060;13.786;2023-05-17T02:11:49;100655.84;;;4.96;95.85
74327;BME280;62745;51.060;13.786;2023-05-17T02:14:14;100652.44;;;4.76;96.41
74327;BME280;62745;51.060;13.786;2023-05-17T02:16:40;100647.09;;;4.86;95.71
74327;BME280;62745;51.060;13.786;2023-05-17T02:19:06;100649.50;;;4.89;95.76
74327;BME280;62745;51.060;13.786;2023-05-17T02:21:33;100647.59;;;4.72;97.05
74327;BME280;62745;51.060;13.786;2023-05-17T02:23:59;100643.75;;;4.57;96.94
74327;BME280;62745;51.060;13.786;2023-05-17T02:26:24;100650.28;;;4.52;97.93
74327;BME280;62745;51.060;13.786;2023-05-17T02:28:50;100650.59;;;4.87;97.05
74327;BME280;62745;51.060;13.786;2023-05-17T02:31:15;100654.94;;;4.78;96.37
74327;BME280;62745;51.060;13.786;2023-05-17T02:33:41;100652.41;;;4.86;95.95
74327;BME280;62745;51.060;13.786;2023-05-17T02:36:07;100669.03;;;4.69;96.36
74327;BME280;62745;51.060;13.786;2023-05-17T02:38:33;100669.09;;;4.59;96.49
74327;BME280;62745;51.060;13.786;2023-05-17T02:40:58;100674.38;;;4.49;96.59
74327;BME280;62745;51.060;13.786;2023-05-17T02:43:24;100676.88;;;4.61;96.62
74327;BME280;62745;51.060;13.786;2023-05-17T02:45:49;100681.19;;;4.62;96.21
74327;BME280;62745;51.060;13.786;2023-05-17T02:48:14;100677.72;;;4.51;96.61
74327;BME280;62745;51.060;13.786;2023-05-17T02:50:40;100683.28;;;4.48;97.08
74327;BME280;62745;51.060;13.786;2023-05-17T02:53:05;100681.47;;;4.49;97.01
74327;BME280;62745;51.060;13.786;2023-05-17T02:55:30;100676.97;;;4.69;96.50
74327;BME280;62745;51.060;13.786;2023-05-17T02:57:56;100691.41;;;4.84;95.76
74327;BME280;62745;51.060;13.786;2023-05-17T03:00:21;100695.66;;;4.67;96.06
74327;BME280;62745;51.060;13.786;2023-05-17T03:02:46;100698.63;;;4.55;96.57
74327;BME280;62745;51.060;13.786;2023-05-17T03:05:12;100704.06;;;4.43;97.21
74327;BME280;62745;51.060;13.786;2023-05-17T03:07:37;100695.53;;;4.59;96.40
74327;BME280;62745;51.060;13.786;2023-05-17T03:10:02;100693.59;;;4.51;97.09
74327;BME280;62745;51.060;13.786;2023-05-17T03:12:28;100689.97;;;4.62;96.15
74327;BME280;62745;51.060;13.786;2023-05-17T03:14:53;100692.31;;;4.75;96.52
74327;BME280;62745;51.060;13.786;2023-05-17T03:17:18;100697.81;;;4.91;96.83
74327;BME280;62745;51.060;13.786;2023-05-17T03:19:43;100704.94;;;4.81;95.69
74327;BME280;62745;51.060;13.786;2023-05-17T03:22:09;100695.94;;;4.74;96.48
74327;BME280;62745;51.060;13.786;2023-05-17T03:24:34;100704.19;;;4.98;95.70
74327;BME280;62745;51.060;13.786;2023-05-17T03:27:00;100711.44;;;5.06;94.60
74327;BME280;62745;51.060;13.786;2023-05-17T03:29:25;100700.56;;;4.99;93.24
74327;BME280;62745;51.060;13.786;2023-05-17T03:31:50;100701.59;;;4.89;94.22
74327;BME280;62745;51.060;13.786;2023-05-17T03:34:15;100705.44;;;5.04;93.61
74327;BME280;62745;51.060;13.786;2023-05-17T03:36:41;100703.34;;;5.07;92.59
74327;BME280;62745;51.060;13.786;2023-05-17T03:39:07;100707.13;;;5.32;92.98
74327;BME280;62745;51.060;13.786;2023-05-17T03:41:32;100712.19;;;5.26;93.04
74327;BME280;62745;51.060;13.786;2023-05-17T03:43:58;100716.88;;;4.95;94.25
74327;BME280;62745;51.060;13.786;2023-05-17T03:46:23;100719.69;;;4.93;94.31
74327;BME280;62745;51.060;13.786;2023-05-17T03:48:49;100728.38;;;4.76;94.71
74327;BME280;62745;51.060;13.786;2023-05-17T03:51:14;100730.66;;;4.98;93.95
74327;BME280;62745;51.060;13.786;2023-05-17T03:53:40;100728.38;;;4.66;94.22
74327;BME280;62745;51.060;13.786;2023-05-17T03:56:08;100735.91;;;4.61;95.54
74327;BME280;62745;51.060;13.786;2023-05-17T03:58:33;100739.41;;;4.52;95.68
74327;BME280;62745;51.060;13.786;2023-05-17T04:00:58;100735.91;;;4.61;96.12
74327;BME280;62745;51.060;13.786;2023-05-17T04:03:24;100742.34;;;4.59;96.52
74327;BME280;62745;51.060;13.786;2023-05-17T04:05:49;100747.47;;;4.60;96.31
74327;BME280;62745;51.060;13.786;2023-05-17T04:08:15;100747.44;;;4.70;95.95
74327;BME280;62745;51.060;13.786;2023-05-17T04:10:40;100744.53;;;4.73;96.03
74327;BME280;62745;51.060;13.786;2023-05-17T04:13:07;100749.25;;;4.79;96.39
74327;BME280;62745;51.060;13.786;2023-05-17T04:15:33;100759.78;;;4.98;95.20
74327;BME280;62745;51.060;13.786;2023-05-17T04:17:58;100752.47;;;5.20;94.36
74327;BME280;62745;51.060;13.786;2023-05-17T04:20:23;100759.63;;;5.47;93.99
74327;BME280;62745;51.060;13.786;2023-05-17T04:22:49;100754.03;;;5.50;93.36
74327;BME280;62745;51.060;13.786;2023-05-17T04:25:14;100759.00;;;5.90;92.02
74327;BME280;62745;51.060;13.786;2023-05-17T04:27:40;100753.47;;;6.01;89.64
74327;BME280;62745;51.060;13.786;2023-05-17T04:30:06;100748.56;;;6.24;89.60
74327;BME280;62745;51.060;13.786;2023-05-17T04:32:32;100749.31;;;6.34;89.84
74327;BME280;62745;51.060;13.786;2023-05-17T04:34:58;100752.94;;;6.51;89.63
74327;BME280;62745;51.060;13.786;2023-05-17T04:37:23;100743.13;;;6.69;88.31
74327;BME280;62745;51.060;13.786;2023-05-17T04:39:48;100739.81;;;6.93;87.37
74327;BME280;62745;51.060;13.786;2023-05-17T04:42:14;100747.72;;;7.11;86.88
74327;BME280;62745;51.060;13.786;2023-05-17T04:44:39;100750.09;;;7.22;86.14
74327;BME280;62745;51.060;13.786;2023-05-17T04:47:04;100757.22;;;7.21;86.69
74327;BME280;62745;51.060;13.786;2023-05-17T04:49:29;100770.16;;;7.50;86.00
74327;BME280;62745;51.060;13.786;2023-05-17T04:51:55;100771.22;;;7.58;85.42
74327;BME280;62745;51.060;13.786;2023-05-17T04:54:20;100771.66;;;7.53;84.56
74327;BME280;62745;51.060;13.786;2023-05-17T04:56:46;100775.22;;;7.70;85.55
74327;BME280;62745;51.060;13.786;2023-05-17T04:59:11;100785.75;;;7.79;84.86
74327;BME280;62745;51.060;13.786;2023-05-17T05:01:36;100785.97;;;7.94;84.63
74327;BME280;62745;51.060;13.786;2023-05-17T05:04:02;100787.19;;;8.08;83.16
74327;BME280;62745;51.060;13.786;2023-05-17T05:06:32;100786.00;;;8.19;83.72
74327;BME280;62745;51.060;13.786;2023-05-17T05:08:58;100768.38;;;8.18;83.04
74327;BME280;62745;51.060;13.786;2023-05-17T05:11:23;100772.72;;;8.27;84.01
74327;BME280;62745;51.060;13.786;2023-05-17T05:13:49;100758.28;;;8.37;84.39
74327;BME280;62745;51.060;13.786;2023-05-17T05:16:14;100756.03;;;8.00;82.28
74327;BME280;62745;51.060;13.786;2023-05-17T05:18:39;100760.72;;;8.14;82.50
74327;BME280;62745;51.060;13.786;2023-05-17T05:21:04;100773.00;;;7.99;82.38
74327;BME280;62745;51.060;13.786;2023-05-17T05:23:30;100770.94;;;7.77;82.48
74327;BME280;62745;51.060;13.786;2023-05-17T05:25:55;100776.03;;;8.21;83.66
74327;BME280;62745;51.060;13.786;2023-05-17T05:28:20;100773.72;;;8.26;83.19
74327;BME280;62745;51.060;13.786;2023-05-17T05:30:46;100780.75;;;8.51;83.17
74327;BME280;62745;51.060;13.786;2023-05-17T05:33:11;100779.75;;;8.68;83.40
74327;BME280;62745;51.060;13.786;2023-05-17T05:35:36;100776.25;;;8.84;81.98
74327;BME280;62745;51.060;13.786;2023-05-17T05:38:02;100780.59;;;8.85;81.62
74327;BME280;62745;51.060;13.786;2023-05-17T05:40:27;100792.56;;;8.97;82.22
74327;BME280;62745;51.060;13.786;2023-05-17T05:42:52;100790.06;;;8.55;80.59
74327;BME280;62745;51.060;13.786;2023-05-17T05:45:18;100799.09;;;8.62;81.17
74327;BME280;62745;51.060;13.786;2023-05-17T05:47:43;100790.25;;;8.54;81.20
74327;BME280;62745;51.060;13.786;2023-05-17T05:50:09;100799.09;;;8.79;82.29
74327;BME280;62745;51.060;13.786;2023-05-17T05:52:35;100806.88;;;8.48;81.10
74327;BME280;62745;51.060;13.786;2023-05-17T05:55:00;100796.75;;;8.59;81.48
74327;BME280;62745;51.060;13.786;2023-05-17T05:57:25;100803.72;;;8.52;81.63
74327;BME280;62745;51.060;13.786;2023-05-17T05:59:51;100811.41;;;8.80;81.51
74327;BME280;62745;51.060;13.786;2023-05-17T06:02:16;100815.56;;;8.66;81.19
74327;BME280;62745;51.060;13.786;2023-05-17T06:04:43;100818.38;;;8.89;82.65
74327;BME280;62745;51.060;13.786;2023-05-17T06:07:08;100817.72;;;8.70;82.07
74327;BME280;62745;51.060;13.786;2023-05-17T06:09:33;100824.41;;;8.74;81.31
74327;BME280;62745;51.060;13.786;2023-05-17T06:11:59;100822.72;;;8.65;82.51
74327;BME280;62745;51.060;13.786;2023-05-17T06:14:25;100825.22;;;8.83;81.82
74327;BME280;62745;51.060;13.786;2023-05-17T06:16:50;100833.88;;;8.77;81.86
74327;BME280;62745;51.060;13.786;2023-05-17T06:19:15;100827.38;;;8.88;81.93
74327;BME280;62745;51.060;13.786;2023-05-17T06:21:41;100828.19;;;8.72;80.80
74327;BME280;62745;51.060;13.786;2023-05-17T06:24:06;100836.03;;;8.65;81.79
74327;BME280;62745;51.060;13.786;2023-05-17T06:26:31;100834.38;;;8.97;81.57
74327;BME280;62745;51.060;13.786;2023-05-17T06:28:57;100836.72;;;9.00;81.54
74327;BME280;62745;51.060;13.786;2023-05-17T06:31:22;100843.88;;;9.08;82.71
74327;BME280;62745;51.060;13.786;2023-05-17T06:33:47;100841.19;;;9.24;81.21
74327;BME280;62745;51.060;13.786;2023-05-17T06:36:13;100848.81;;;9.35;80.19
74327;BME280;62745;51.060;13.786;2023-05-17T06:38:38;100837.03;;;9.13;81.06
74327;BME280;62745;51.060;13.786;2023-05-17T06:41:04;100843.19;;;9.30;80.61
74327;BME280;62745;51.060;13.786;2023-05-17T06:43:29;100839.69;;;9.13;80.75
74327;BME280;62745;51.060;13.786;2023-05-17T06:45:55;100836.69;;;9.24;80.31
74327;BME280;62745;51.060;13.786;2023-05-17T06:48:20;100832.63;;;9.53;80.90
74327;BME280;62745;51.060;13.786;2023-05-17T06:50:45;100844.91;;;9.70;79.42
74327;BME280;62745;51.060;13.786;2023-05-17T06:53:10;100846.00;;;9.92;79.96
74327;BME280;62745;51.060;13.786;2023-05-17T06:55:36;100845.16;;;10.31;78.64
74327;BME280;62745;51.060;13.786;2023-05-17T06:58:01;100849.41;;;10.48;78.75
74327;BME280;62745;51.060;13.786;2023-05-17T07:00:26;100846.63;;;10.41;77.31
74327;BME280;62745;51.060;13.786;2023-05-17T07:02:52;100852.22;;;10.77;77.49
74327;BME280;62745;51.060;13.786;2023-05-17T07:05:17;100845.22;;;10.91;75.68
74327;BME280;62745;51.060;13.786;2023-05-17T07:07:43;100845.84;;;10.78;76.55
74327;BME280;62745;51.060;13.786;2023-05-17T07:10:08;100855.06;;;10.76;75.31
74327;BME280;62745;51.060;13.786;2023-05-17T07:12:33;100846.00;;;11.00;75.82
74327;BME280;62745;51.060;13.786;2023-05-17T07:14:58;100842.88;;;10.96;73.74
74327;BME280;62745;51.060;13.786;2023-05-17T07:17:24;100837.47;;;11.19;75.74
74327;BME280;62745;51.060;13.786;2023-05-17T07:19:49;100832.59;;;11.23;72.60
74327;BME280;62745;51.060;13.786;2023-05-17T07:22:18;100834.09;;;11.55;74.67
74327;BME280;62745;51.060;13.786;2023-05-17T07:24:44;100836.25;;;11.59;73.41
74327;BME280;62745;51.060;13.786;2023-05-17T07:27:10;100843.88;;;11.48;72.39
74327;BME280;62745;51.060;13.786;2023-05-17T07:29:36;100826.72;;;11.71;72.46
74327;BME280;62745;51.060;13.786;2023-05-17T07:32:02;100838.19;;;11.95;72.70
74327;BME280;62745;51.060;13.786;2023-05-17T07:34:28;100842.56;;;11.29;71.86
74327;BME280;62745;51.060;13.786;2023-05-17T07:36:54;100837.06;;;11.07;74.30
74327;BME280;62745;51.060;13.786;2023-05-17T07:39:19;100842.53;;;11.14;71.52
74327;BME280;62745;51.060;13.786;2023-05-17T07:41:45;100834.91;;;11.40;71.27
74327;BME280;62745;51.060;13.786;2023-05-17T07:44:10;100844.97;;;11.38;72.31
74327;BME280;62745;51.060;13.786;2023-05-17T07:46:35;100844.63;;;11.04;71.76
74327;BME280;62745;51.060;13.786;2023-05-17T07:49:00;100850.44;;;11.07;71.90
74327;BME280;62745;51.060;13.786;2023-05-17T07:51:26;100843.94;;;11.25;71.64
74327;BME280;62745;51.060;13.786;2023-05-17T07:53:51;100856.78;;;11.29;71.40
74327;BME280;62745;51.060;13.786;2023-05-17T07:56:16;100859.91;;;11.33;70.22
74327;BME280;62745;51.060;13.786;2023-05-17T07:58:42;100851.88;;;11.33;69.61
74327;BME280;62745;51.060;13.786;2023-05-17T08:01:07;100854.88;;;11.67;69.46
74327;BME280;62745;51.060;13.786;2023-05-17T08:03:34;100854.25;;;11.95;67.88
74327;BME280;62745;51.060;13.786;2023-05-17T08:05:59;100847.28;;;12.15;67.86
74327;BME280;62745;51.060;13.786;2023-05-17T08:08:24;100849.44;;;12.05;68.29
74327;BME280;62745;51.060;13.786;2023-05-17T08:11:27;100857.38;;;11.98;67.95
74327;BME280;62745;51.060;13.786;2023-05-17T08:17:14;100851.81;;;11.56;66.29
74327;BME280;62745;51.060;13.786;2023-05-17T08:19:39;100865.16;;;11.79;69.08
74327;BME280;62745;51.060;13.786;2023-05-17T08:22:05;100872.28;;;12.37;66.05
74327;BME280;62745;51.060;13.786;2023-05-17T08:24:30;100847.44;;;12.64;63.18
74327;BME280;62745;51.060;13.786;2023-05-17T08:26:55;100847.03;;;12.89;62.62
74327;BME280;62745;51.060;13.786;2023-05-17T08:29:21;100851.56;;;12.67;62.78
74327;BME280;62745;51.060;13.786;2023-05-17T08:31:46;100846.66;;;12.13;62.82
74327;BME280;62745;51.060;13.786;2023-05-17T08:34:11;100844.34;;;12.46;60.50
74327;BME280;62745;51.060;13.786;2023-05-17T08:36:37;100855.72;;;12.70;62.06
74327;BME280;62745;51.060;13.786;2023-05-17T08:39:02;100853.22;;;12.47;62.29
74327;BME280;62745;51.060;13.786;2023-05-17T08:44:15;100852.66;;;12.94;61.01
74327;BME280;62745;51.060;13.786;2023-05-17T08:46:43;100838.25;;;12.95;60.55
74327;BME280;62745;51.060;13.786;2023-05-17T08:49:16;100846.22;;;12.67;62.59
74327;BME280;62745;51.060;13.786;2023-05-17T08:51:48;100852.91;;;12.20;60.40
74327;BME280;62745;51.060;13.786;2023-05-17T08:54:14;100855.81;;;11.89;61.70
74327;BME280;62745;51.060;13.786;2023-05-17T08:56:41;100861.78;;;12.21;61.96
74327;BME280;62745;51.060;13.786;2023-05-17T08:59:08;100851.44;;;12.54;62.02
74327;BME280;62745;51.060;13.786;2023-05-17T09:01:35;100849.59;;;12.76;59.53
74327;BME280;62745;51.060;13.786;2023-05-17T09:04:00;100847.25;;;12.66;62.06
74327;BME280;62745;51.060;13.786;2023-05-17T09:06:26;100858.97;;;12.65;61.32
74327;BME280;62745;51.060;13.786;2023-05-17T09:08:53;100865.13;;;12.08;63.03
74327;BME280;62745;51.060;13.786;2023-05-17T09:11:30;100864.13;;;11.94;63.88
74327;BME280;62745;51.060;13.786;2023-05-17T09:13:58;100868.16;;;12.20;64.17
74327;BME280;62745;51.060;13.786;2023-05-17T09:16:24;100847.50;;;11.84;63.01
74327;BME280;62745;51.060;13.786;2023-05-17T09:18:54;100847.09;;;12.53;62.46
74327;BME280;62745;51.060;13.786;2023-05-17T09:21:20;100856.78;;;12.32;61.96
74327;BME280;62745;51.060;13.786;2023-05-17T09:23:46;100857.03;;;12.38;62.73
74327;BME280;62745;51.060;13.786;2023-05-17T09:26:12;100868.69;;;12.30;61.04
74327;BME280;62745;51.060;13.786;2023-05-17T09:28:39;100873.00;;;11.95;62.64
74327;BME280;62745;51.060;13.786;2023-05-17T09:31:08;100869.75;;;12.14;63.26
74327;BME280;62745;51.060;13.786;2023-05-17T09:33:44;100871.59;;;11.99;64.32
74327;BME280;62745;51.060;13.786;2023-05-17T09:36:16;100872.50;;;12.21;64.04
74327;BME280;62745;51.060;13.786;2023-05-17T09:38:50;100886.25;;;12.32;63.73
74327;BME280;62745;51.060;13.786;2023-05-17T09:41:15;100884.59;;;12.31;63.30
74327;BME280;62745;51.060;13.786;2023-05-17T09:43:41;100891.34;;;12.27;63.11
74327;BME280;62745;51.060;13.786;2023-05-17T09:46:07;100888.31;;;12.52;63.87
74327;BME280;62745;51.060;13.786;2023-05-17T09:48:32;100882.31;;;12.14;61.93
74327;BME280;62745;51.060;13.786;2023-05-17T09:50:59;100883.47;;;12.26;60.39
74327;BME280;62745;51.060;13.786;2023-05-17T09:53:29;100878.16;;;11.96;60.82
74327;BME280;62745;51.060;13.786;2023-05-17T09:55:58;100879.63;;;12.14;60.81
74327;BME280;62745;51.060;13.786;2023-05-17T09:58:24;100888.09;;;12.32;61.53
74327;BME280;62745;51.060;13.786;2023-05-17T10:00:52;100888.78;;;11.90;61.08
74327;BME280;62745;51.060;13.786;2023-05-17T10:03:20;100889.06;;;12.10;61.84
74327;BME280;62745;51.060;13.786;2023-05-17T10:05:50;100888.19;;;12.24;62.34
74327;BME280;62745;51.060;13.786;2023-05-17T10:08:16;100891.53;;;12.11;61.59
74327;BME280;62745;51.060;13.786;2023-05-17T10:10:45;100887.09;;;12.18;62.30
74327;BME280;62745;51.060;13.786;2023-05-17T10:13:12;100885.69;;;12.58;62.33
74327;BME280;62745;51.060;13.786;2023-05-17T10:15:40;100893.00;;;12.14;62.02
74327;BME280;62745;51.060;13.786;2023-05-17T10:18:07;100873.91;;;12.02;60.66
74327;BME280;62745;51.060;13.786;2023-05-17T10:20:33;100885.59;;;11.71;61.94
74327;BME280;62745;51.060;13.786;2023-05-17T10:22:59;100896.03;;;11.66;62.13
74327;BME280;62745;51.060;13.786;2023-05-17T10:25:28;100887.94;;;12.04;62.01
74327;BME280;62745;51.060;13.786;2023-05-17T10:27:53;100890.88;;;12.09;60.80
74327;BME280;62745;51.060;13.786;2023-05-17T10:30:19;100893.69;;;12.73;59.94
74327;BME280;62745;51.060;13.786;2023-05-17T10:32:45;100891.59;;;13.11;58.96
74327;BME280;62745;51.060;13.786;2023-05-17T10:35:11;100879.53;;;13.22;57.55
74327;BME280;62745;51.060;13.786;2023-05-17T10:37:39;100887.50;;;13.15;54.88
74327;BME280;62745;51.060;13.786;2023-05-17T10:40:06;100887.09;;;13.40;55.58
74327;BME280;62745;51.060;13.786;2023-05-17T10:42:40;100904.75;;;13.49;54.35
74327;BME280;62745;51.060;13.786;2023-05-17T10:45:06;100904.50;;;13.22;53.43
74327;BME280;62745;51.060;13.786;2023-05-17T10:47:33;100885.72;;;13.22;51.63
74327;BME280;62745;51.060;13.786;2023-05-17T10:49:59;100893.84;;;13.57;49.43
74327;BME280;62745;51.060;13.786;2023-05-17T10:52:24;100885.06;;;13.42;49.09
74327;BME280;62745;51.060;13.786;2023-05-17T10:54:50;100875.53;;;13.67;50.79
74327;BME280;62745;51.060;13.786;2023-05-17T10:59:59;100882.75;;;13.67;53.80
74327;BME280;62745;51.060;13.786;2023-05-17T11:02:26;100874.84;;;13.93;52.81
74327;BME280;62745;51.060;13.786;2023-05-17T11:04:51;100876.75;;;13.99;51.56
74327;BME280;62745;51.060;13.786;2023-05-17T11:12:14;100866.94;;;13.78;50.31
74327;BME280;62745;51.060;13.786;2023-05-17T11:17:16;100876.47;;;13.81;50.00
74327;BME280;62745;51.060;13.786;2023-05-17T11:19:54;100875.75;;;14.07;48.48
74327;BME280;62745;51.060;13.786;2023-05-17T11:22:23;100881.13;;;14.07;48.67
74327;BME280;62745;51.060;13.786;2023-05-17T11:24:51;100873.25;;;13.99;50.25
74327;BME280;62745;51.060;13.786;2023-05-17T11:27:21;100870.66;;;14.86;51.26
74327;BME280;62745;51.060;13.786;2023-05-17T11:29:53;100863.22;;;14.95;49.18
74327;BME280;62745;51.060;13.786;2023-05-17T11:32:31;100854.72;;;15.18;47.81
74327;BME280;62745;51.060;13.786;2023-05-17T11:34:59;100873.09;;;14.61;46.53
74327;BME280;62745;51.060;13.786;2023-05-17T11:37:28;100869.78;;;14.72;45.87
74327;BME280;62745;51.060;13.786;2023-05-17T11:40:04;100858.25;;;15.31;44.32
74327;BME280;62745;51.060;13.786;2023-05-17T11:42:30;100858.66;;;14.95;45.55
74327;BME280;62745;51.060;13.786;2023-05-17T11:44:56;100852.66;;;15.20;46.51
74327;BME280;62745;51.060;13.786;2023-05-17T11:47:22;100830.69;;;15.62;47.71
74327;BME280;62745;51.060;13.786;2023-05-17T11:49:48;100855.75;;;15.03;45.79
74327;BME280;62745;51.060;13.786;2023-05-17T11:52:17;100859.50;;;15.22;47.71
74327;BME280;62745;51.060;13.786;2023-05-17T11:54:42;100866.91;;;14.94;45.39
74327;BME280;62745;51.060;13.786;2023-05-17T11:57:10;100861.16;;;15.03;44.44
74327;BME280;62745;51.060;13.786;2023-05-17T11:59:37;100852.03;;;15.31;44.42
74327;BME280;62745;51.060;13.786;2023-05-17T12:02:06;100846.41;;;16.68;44.89
74327;BME280;62745;51.060;13.786;2023-05-17T12:04:35;100853.50;;;17.19;43.67
74327;BME280;62745;51.060;13.786;2023-05-17T12:07:01;100853.25;;;16.96;41.92
74327;BME280;62745;51.060;13.786;2023-05-17T12:09:28;100856.81;;;16.20;42.89
74327;BME280;62745;51.060;13.786;2023-05-17T12:11:53;100849.75;;;16.19;40.94
74327;BME280;62745;51.060;13.786;2023-05-17T12:14:20;100837.41;;;16.43;41.43
74327;BME280;62745;51.060;13.786;2023-05-17T12:16:53;100843.84;;;17.30;41.06
74327;BME280;62745;51.060;13.786;2023-05-17T12:19:22;100843.44;;;15.93;42.23
74327;BME280;62745;51.060;13.786;2023-05-17T12:21:50;100844.56;;;15.46;41.85
74327;BME280;62745;51.060;13.786;2023-05-17T12:24:16;100845.72;;;16.41;42.57
74327;BME280;62745;51.060;13.786;2023-05-17T12:26:45;100845.41;;;17.62;41.60
74327;BME280;62745;51.060;13.786;2023-05-17T12:29:11;100857.22;;;16.93;39.64
74327;BME280;62745;51.060;13.786;2023-05-17T12:31:43;100862.81;;;16.98;40.37
74327;BME280;62745;51.060;13.786;2023-05-17T12:34:10;100868.41;;;18.26;39.85
74327;BME280;62745;51.060;13.786;2023-05-17T12:36:39;100855.59;;;18.93;39.59
74327;BME280;62745;51.060;13.786;2023-05-17T12:39:05;100866.88;;;16.82;40.18
74327;BME280;62745;51.060;13.786;2023-05-17T12:41:34;100867.78;;;17.26;39.51
74327;BME280;62745;51.060;13.786;2023-05-17T12:43:59;100875.00;;;18.49;38.33
74327;BME280;62745;51.060;13.786;2023-05-17T12:46:26;100866.91;;;18.60;36.53
74327;BME280;62745;51.060;13.786;2023-05-17T12:48:53;100872.84;;;18.99;35.34
74327;BME280;62745;51.060;13.786;2023-05-17T12:51:19;100871.16;;;20.15;34.51
74327;BME280;62745;51.060;13.786;2023-05-17T12:53:50;100871.56;;;19.95;34.73
74327;BME280;62745;51.060;13.786;2023-05-17T12:56:18;100860.81;;;20.40;35.77
74327;BME280;62745;51.060;13.786;2023-05-17T12:58:44;100874.88;;;19.39;34.01
74327;BME280;62745;51.060;13.786;2023-05-17T13:01:31;100875.31;;;19.24;35.83